sensor_id;sensor_type;location;lat;lon;timestamp;temperature;humidity
12438;DHT22;6283;51.330;12.374;2023-05-21T00:01:33;16.00;74.30
12438;DHT22;6283;51.330;12.374;2023-05-21T00:03:59;16.00;84.30
12438;DHT22;6283;51.330;12.374;2023-05-21T00:06:25;15.90;93.50
12438;DHT22;6283;51.330;12.374;2023-05-21T00:08:51;15.90;99.90
12438;DHT22;6283;51.330;12.374;2023-05-21T00:11:17;15.90;99.90
12438;DHT22;6283;51.330;12.374;2023-05-21T00:13:43;15.90;99.90
12438;DHT22;6283;51.330;12.374;2023-05-21T00:16:08;15.80;99.90
12438;DHT22;6283;51.330;12.374;2023-05-21T00:18:36;15.80;99.90
12438;DHT22;6283;51.330;12.374;2023-05-21T00:21:04;15.80;99.90
12438;DHT22;6283;51.330;12.374;2023-05-21T00:23:29;15.70;99.90
12438;DHT22;6283;51.330;12.374;2023-05-21T00:25:57;15.80;99.90
12438;DHT22;6283;51.330;12.374;2023-05-21T00:28:23;15.70;99.90
12438;DHT22;6283;51.330;12.374;2023-05-21T00:30:49;15.70;99.90
12438;DHT22;6283;51.330;12.374;2023-05-21T00:33:15;15.70;99.90
12438;DHT22;6283;51.330;12.374;2023-05-21T00:35:40;15.70;99.90
12438;DHT22;6283;51.330;12.374;2023-05-21T00:38:06;15.60;99.90
12438;DHT22;6283;51.330;12.374;2023-05-21T00:40:34;15.60;99.90
12438;DHT22;6283;51.330;12.374;2023-05-21T00:43:00;15.60;99.90
12438;DHT22;6283;51.330;12.374;2023-05-21T00:45:26;15.60;99.90
12438;DHT22;6283;51.330;12.374;2023-05-21T00:47:52;15.50;99.90
12438;DHT22;6283;51.330;12.374;2023-05-21T00:50:21;15.50;99.90
12438;DHT22;6283;51.330;12.374;2023-05-21T00:52:47;15.50;99.90
12438;DHT22;6283;51.330;12.374;2023-05-21T00:55:14;15.50;99.90
12438;DHT22;6283;51.330;12.374;2023-05-21T00:57:40;15.50;99.90
12438;DHT22;6283;51.330;12.374;2023-05-21T01:00:07;15.40;99.90
12438;DHT22;6283;51.330;12.374;2023-05-21T01:02:34;15.50;99.90
12438;DHT22;6283;51.330;12.374;2023-05-21T01:05:01;15.50;99.90
12438;DHT22;6283;51.330;12.374;2023-05-21T01:07:34;15.40;99.90
12438;DHT22;6283;51.330;12.374;2023-05-21T01:10:03;15.40;99.90
12438;DHT22;6283;51.330;12.374;2023-05-21T01:12:30;15.40;99.90
12438;DHT22;6283;51.330;12.374;2023-05-21T01:14:59;15.30;99.90
12438;DHT22;6283;51.330;12.374;2023-05-21T01:17:27;15.30;99.90
12438;DHT22;6283;51.330;12.374;2023-05-21T01:19:53;15.30;99.90
12438;DHT22;6283;51.330;12.374;2023-05-21T01:22:20;15.30;99.90
12438;DHT22;6283;51.330;12.374;2023-05-21T01:24:49;15.30;99.90
12438;DHT22;6283;51.330;12.374;2023-05-21T01:27:15;15.20;99.90
12438;DHT22;6283;51.330;12.374;2023-05-21T01:29:41;15.20;99.90
12438;DHT22;6283;51.330;12.374;2023-05-21T01:35:03;15.20;99.90
12438;DHT22;6283;51.330;12.374;2023-05-21T01:37:35;15.10;99.90
12438;DHT22;6283;51.330;12.374;2023-05-21T01:40:10;15.10;99.90
12438;DHT22;6283;51.330;12.374;2023-05-21T01:42:41;15.10;99.90
12438;DHT22;6283;51.330;12.374;2023-05-21T01:45:10;15.10;99.90
12438;DHT22;6283;51.330;12.374;2023-05-21T01:47:36;15.10;99.90
12438;DHT22;6283;51.330;12.374;2023-05-21T01:50:03;15.10;99.90
12438;DHT22;6283;51.330;12.374;2023-05-21T01:52:29;15.10;99.90
12438;DHT22;6283;51.330;12.374;2023-05-21T01:54:58;15.00;99.90
12438;DHT22;6283;51.330;12.374;2023-05-21T01:57:24;15.00;99.90
12438;DHT22;6283;51.330;12.374;2023-05-21T01:59:51;15.00;99.90
12438;DHT22;6283;51.330;12.374;2023-05-21T02:02:17;15.00;99.90
12438;DHT22;6283;51.330;12.374;2023-05-21T02:04:43;15.00;99.90
12438;DHT22;6283;51.330;12.374;2023-05-21T02:07:10;15.00;99.90
12438;DHT22;6283;51.330;12.374;2023-05-21T02:09:39;14.90;1.40
12438;DHT22;6283;51.330;12.374;2023-05-21T02:12:05;14.90;1.00
12438;DHT22;6283;51.330;12.374;2023-05-21T02:14:31;15.00;1.00
12438;DHT22;6283;51.330;12.374;2023-05-21T02:16:58;14.90;1.00
12438;DHT22;6283;51.330;12.374;2023-05-21T02:19:25;14.80;1.00
12438;DHT22;6283;51.330;12.374;2023-05-21T02:21:51;14.90;1.00
12438;DHT22;6283;51.330;12.374;2023-05-21T02:24:17;14.90;1.00
12438;DHT22;6283;51.330;12.374;2023-05-21T02:26:42;14.90;1.00
12438;DHT22;6283;51.330;12.374;2023-05-21T02:29:09;14.80;1.00
12438;DHT22;6283;51.330;12.374;2023-05-21T02:31:34;14.80;1.00
12438;DHT22;6283;51.330;12.374;2023-05-21T02:34:00;14.80;1.00
12438;DHT22;6283;51.330;12.374;2023-05-21T02:36:26;14.80;1.00
12438;DHT22;6283;51.330;12.374;2023-05-21T02:38:53;14.70;1.00
12438;DHT22;6283;51.330;12.374;2023-05-21T02:41:22;14.70;1.00
12438;DHT22;6283;51.330;12.374;2023-05-21T02:43:47;14.70;1.00
12438;DHT22;6283;51.330;12.374;2023-05-21T02:46:13;14.70;1.00
12438;DHT22;6283;51.330;12.374;2023-05-21T02:48:38;14.70;1.00
12438;DHT22;6283;51.330;12.374;2023-05-21T02:51:04;14.60;1.00
12438;DHT22;6283;51.330;12.374;2023-05-21T02:53:30;14.60;1.00
12438;DHT22;6283;51.330;12.374;2023-05-21T02:55:55;14.60;1.00
12438;DHT22;6283;51.330;12.374;2023-05-21T02:58:21;14.60;1.00
12438;DHT22;6283;51.330;12.374;2023-05-21T03:00:50;14.60;1.00
12438;DHT22;6283;51.330;12.374;2023-05-21T03:03:15;14.70;1.00
12438;DHT22;6283;51.330;12.374;2023-05-21T03:05:41;14.60;1.00
12438;DHT22;6283;51.330;12.374;2023-05-21T03:08:07;14.50;1.00
12438;DHT22;6283;51.330;12.374;2023-05-21T03:10:32;14.50;1.00
12438;DHT22;6283;51.330;12.374;2023-05-21T03:12:58;14.40;1.00
12438;DHT22;6283;51.330;12.374;2023-05-21T03:15:23;14.60;1.00
12438;DHT22;6283;51.330;12.374;2023-05-21T03:17:49;14.40;1.00
12438;DHT22;6283;51.330;12.374;2023-05-21T03:20:15;14.60;1.00
12438;DHT22;6283;51.330;12.374;2023-05-21T03:22:44;14.40;1.00
12438;DHT22;6283;51.330;12.374;2023-05-21T03:25:10;14.40;1.00
12438;DHT22;6283;51.330;12.374;2023-05-21T03:27:37;14.40;1.00
12438;DHT22;6283;51.330;12.374;2023-05-21T03:30:03;14.30;1.00
12438;DHT22;6283;51.330;12.374;2023-05-21T03:32:29;14.40;1.00
12438;DHT22;6283;51.330;12.374;2023-05-21T03:34:58;14.40;1.00
12438;DHT22;6283;51.330;12.374;2023-05-21T03:37:23;14.30;1.00
12438;DHT22;6283;51.330;12.374;2023-05-21T03:39:49;14.30;1.00
12438;DHT22;6283;51.330;12.374;2023-05-21T03:42:15;14.30;1.00
12438;DHT22;6283;51.330;12.374;2023-05-21T03:44:40;14.30;1.00
12438;DHT22;6283;51.330;12.374;2023-05-21T03:47:06;14.30;1.00
12438;DHT22;6283;51.330;12.374;2023-05-21T03:49:31;14.20;1.00
12438;DHT22;6283;51.330;12.374;2023-05-21T03:51:57;14.30;1.00
12438;DHT22;6283;51.330;12.374;2023-05-21T03:54:23;14.20;1.00
12438;DHT22;6283;51.330;12.374;2023-05-21T03:56:48;14.30;1.00
12438;DHT22;6283;51.330;12.374;2023-05-21T03:59:14;14.40;1.00
12438;DHT22;6283;51.330;12.374;2023-05-21T04:01:40;14.40;1.00
12438;DHT22;6283;51.330;12.374;2023-05-21T04:04:05;14.30;1.00
12438;DHT22;6283;51.330;12.374;2023-05-21T04:06:31;14.30;1.00
12438;DHT22;6283;51.330;12.374;2023-05-21T04:08:56;14.30;1.00
12438;DHT22;6283;51.330;12.374;2023-05-21T04:11:22;14.40;1.00
12438;DHT22;6283;51.330;12.374;2023-05-21T04:13:47;14.40;1.00
12438;DHT22;6283;51.330;12.374;2023-05-21T04:16:13;14.50;1.00
12438;DHT22;6283;51.330;12.374;2023-05-21T04:18:43;14.30;1.00
12438;DHT22;6283;51.330;12.374;2023-05-21T04:21:09;14.40;1.00
12438;DHT22;6283;51.330;12.374;2023-05-21T04:23:34;14.70;1.00
12438;DHT22;6283;51.330;12.374;2023-05-21T04:26:01;14.80;1.00
12438;DHT22;6283;51.330;12.374;2023-05-21T04:28:27;14.50;1.00
12438;DHT22;6283;51.330;12.374;2023-05-21T04:30:53;14.60;1.00
12438;DHT22;6283;51.330;12.374;2023-05-21T04:33:21;14.60;1.00
12438;DHT22;6283;51.330;12.374;2023-05-21T04:35:49;14.60;1.00
12438;DHT22;6283;51.330;12.374;2023-05-21T04:38:15;14.70;1.00
12438;DHT22;6283;51.330;12.374;2023-05-21T04:40:53;14.70;1.00
12438;DHT22;6283;51.330;12.374;2023-05-21T04:43:20;14.80;1.00
12438;DHT22;6283;51.330;12.374;2023-05-21T04:45:52;14.70;1.00
12438;DHT22;6283;51.330;12.374;2023-05-21T04:48:19;14.80;1.00
12438;DHT22;6283;51.330;12.374;2023-05-21T04:50:45;14.90;1.00
12438;DHT22;6283;51.330;12.374;2023-05-21T04:53:11;14.80;1.00
12438;DHT22;6283;51.330;12.374;2023-05-21T04:55:36;14.90;1.00
12438;DHT22;6283;51.330;12.374;2023-05-21T04:58:05;14.90;1.00
12438;DHT22;6283;51.330;12.374;2023-05-21T05:00:32;14.90;1.00
12438;DHT22;6283;51.330;12.374;2023-05-21T05:02:58;14.90;1.00
12438;DHT22;6283;51.330;12.374;2023-05-21T05:05:24;15.00;1.00
12438;DHT22;6283;51.330;12.374;2023-05-21T05:07:50;15.00;1.00
12438;DHT22;6283;51.330;12.374;2023-05-21T05:10:16;15.20;1.00
12438;DHT22;6283;51.330;12.374;2023-05-21T05:12:41;15.20;1.00
12438;DHT22;6283;51.330;12.374;2023-05-21T05:15:07;15.20;1.00
12438;DHT22;6283;51.330;12.374;2023-05-21T05:17:33;15.30;1.00
12438;DHT22;6283;51.330;12.374;2023-05-21T05:19:59;15.40;1.00
12438;DHT22;6283;51.330;12.374;2023-05-21T05:22:25;15.50;1.00
12438;DHT22;6283;51.330;12.374;2023-05-21T05:24:51;15.50;1.00
12438;DHT22;6283;51.330;12.374;2023-05-21T05:27:16;15.60;1.00
12438;DHT22;6283;51.330;12.374;2023-05-21T05:29:46;15.60;1.00
12438;DHT22;6283;51.330;12.374;2023-05-21T05:32:12;15.70;1.00
12438;DHT22;6283;51.330;12.374;2023-05-21T05:34:38;15.80;1.00
12438;DHT22;6283;51.330;12.374;2023-05-21T05:37:03;15.80;1.00
12438;DHT22;6283;51.330;12.374;2023-05-21T05:39:29;15.90;1.00
12438;DHT22;6283;51.330;12.374;2023-05-21T05:41:55;16.00;1.00
12438;DHT22;6283;51.330;12.374;2023-05-21T05:44:21;16.10;1.00
12438;DHT22;6283;51.330;12.374;2023-05-21T05:46:46;16.20;1.00
12438;DHT22;6283;51.330;12.374;2023-05-21T05:49:12;16.30;99.90
12438;DHT22;6283;51.330;12.374;2023-05-21T05:51:41;16.40;99.90
12438;DHT22;6283;51.330;12.374;2023-05-21T05:54:06;16.50;99.90
12438;DHT22;6283;51.330;12.374;2023-05-21T05:56:32;16.60;99.90
12438;DHT22;6283;51.330;12.374;2023-05-21T05:58:58;16.70;99.90
12438;DHT22;6283;51.330;12.374;2023-05-21T06:01:24;16.80;99.90
12438;DHT22;6283;51.330;12.374;2023-05-21T06:03:51;16.90;99.90
12438;DHT22;6283;51.330;12.374;2023-05-21T06:06:16;17.00;99.90
12438;DHT22;6283;51.330;12.374;2023-05-21T06:08:42;17.20;99.90
12438;DHT22;6283;51.330;12.374;2023-05-21T06:11:08;17.20;99.90
12438;DHT22;6283;51.330;12.374;2023-05-21T06:13:34;17.30;99.90
12438;DHT22;6283;51.330;12.374;2023-05-21T06:16:00;17.40;99.90
12438;DHT22;6283;51.330;12.374;2023-05-21T06:18:25;17.60;99.90
12438;DHT22;6283;51.330;12.374;2023-05-21T06:20:51;17.60;99.90
12438;DHT22;6283;51.330;12.374;2023-05-21T06:23:17;17.70;99.90
12438;DHT22;6283;51.330;12.374;2023-05-21T06:25:43;17.70;99.90
12438;DHT22;6283;51.330;12.374;2023-05-21T06:28:08;17.80;99.90
12438;DHT22;6283;51.330;12.374;2023-05-21T06:30:34;17.80;99.90
12438;DHT22;6283;51.330;12.374;2023-05-21T06:32:59;17.80;99.90
12438;DHT22;6283;51.330;12.374;2023-05-21T06:35:25;18.00;99.90
12438;DHT22;6283;51.330;12.374;2023-05-21T06:37:51;18.00;99.90
12438;DHT22;6283;51.330;12.374;2023-05-21T06:40:17;18.10;99.90
12438;DHT22;6283;51.330;12.374;2023-05-21T06:42:42;18.10;99.90
12438;DHT22;6283;51.330;12.374;2023-05-21T06:45:08;18.10;87.90
12438;DHT22;6283;51.330;12.374;2023-05-21T06:47:34;18.20;84.40
12438;DHT22;6283;51.330;12.374;2023-05-21T06:49:59;18.30;82.40
12438;DHT22;6283;51.330;12.374;2023-05-21T06:52:25;18.40;78.00
12438;DHT22;6283;51.330;12.374;2023-05-21T06:54:51;18.50;71.20
12438;DHT22;6283;51.330;12.374;2023-05-21T06:57:17;18.60;62.30
12438;DHT22;6283;51.330;12.374;2023-05-21T06:59:43;18.70;52.60
12438;DHT22;6283;51.330;12.374;2023-05-21T07:02:09;18.80;39.20
12438;DHT22;6283;51.330;12.374;2023-05-21T07:04:34;18.90;32.80
12438;DHT22;6283;51.330;12.374;2023-05-21T07:07:01;19.00;28.50
12438;DHT22;6283;51.330;12.374;2023-05-21T07:09:29;19.10;19.30
12438;DHT22;6283;51.330;12.374;2023-05-21T07:11:54;19.20;12.10
12438;DHT22;6283;51.330;12.374;2023-05-21T07:14:20;19.40;8.50
12438;DHT22;6283;51.330;12.374;2023-05-21T07:16:46;19.50;5.70
12438;DHT22;6283;51.330;12.374;2023-05-21T07:19:11;19.60;3.50
12438;DHT22;6283;51.330;12.374;2023-05-21T07:21:39;19.80;1.00
12438;DHT22;6283;51.330;12.374;2023-05-21T07:24:05;19.90;1.00
12438;DHT22;6283;51.330;12.374;2023-05-21T07:26:30;20.00;1.00
12438;DHT22;6283;51.330;12.374;2023-05-21T07:28:56;20.20;1.00
12438;DHT22;6283;51.330;12.374;2023-05-21T07:31:22;20.30;1.00
12438;DHT22;6283;51.330;12.374;2023-05-21T07:33:47;20.30;1.00
12438;DHT22;6283;51.330;12.374;2023-05-21T07:36:13;20.50;1.00
12438;DHT22;6283;51.330;12.374;2023-05-21T07:38:38;20.60;1.00
12438;DHT22;6283;51.330;12.374;2023-05-21T07:41:04;20.70;1.00
12438;DHT22;6283;51.330;12.374;2023-05-21T07:43:30;20.80;1.00
12438;DHT22;6283;51.330;12.374;2023-05-21T07:45:56;20.90;1.00
12438;DHT22;6283;51.330;12.374;2023-05-21T07:48:21;21.10;1.00
12438;DHT22;6283;51.330;12.374;2023-05-21T07:50:47;21.20;1.00
12438;DHT22;6283;51.330;12.374;2023-05-21T07:53:14;21.30;1.00
12438;DHT22;6283;51.330;12.374;2023-05-21T07:55:40;21.50;1.00
12438;DHT22;6283;51.330;12.374;2023-05-21T07:58:15;21.60;1.00
12438;DHT22;6283;51.330;12.374;2023-05-21T08:00:46;21.80;1.00
12438;DHT22;6283;51.330;12.374;2023-05-21T08:03:15;21.90;1.00
12438;DHT22;6283;51.330;12.374;2023-05-21T08:05:42;22.00;1.00
12438;DHT22;6283;51.330;12.374;2023-05-21T08:08:09;22.20;1.00
12438;DHT22;6283;51.330;12.374;2023-05-21T08:10:35;22.30;1.00
12438;DHT22;6283;51.330;12.374;2023-05-21T08:13:01;22.50;1.00
12438;DHT22;6283;51.330;12.374;2023-05-21T08:15:27;22.60;1.00
12438;DHT22;6283;51.330;12.374;2023-05-21T08:17:52;22.70;1.00
12438;DHT22;6283;51.330;12.374;2023-05-21T08:20:18;22.80;1.00
12438;DHT22;6283;51.330;12.374;2023-05-21T08:22:44;22.80;1.00
12438;DHT22;6283;51.330;12.374;2023-05-21T08:25:10;22.90;1.00
12438;DHT22;6283;51.330;12.374;2023-05-21T08:27:36;23.00;1.00
12438;DHT22;6283;51.330;12.374;2023-05-21T08:30:01;23.00;1.00
12438;DHT22;6283;51.330;12.374;2023-05-21T08:32:27;23.10;1.00
12438;DHT22;6283;51.330;12.374;2023-05-21T08:34:52;23.10;1.00
12438;DHT22;6283;51.330;12.374;2023-05-21T08:37:20;23.20;1.00
12438;DHT22;6283;51.330;12.374;2023-05-21T08:39:46;23.30;1.00
12438;DHT22;6283;51.330;12.374;2023-05-21T08:42:45;23.40;1.00
12438;DHT22;6283;51.330;12.374;2023-05-21T08:45:12;23.50;1.00
12438;DHT22;6283;51.330;12.374;2023-05-21T08:47:41;23.60;1.00
12438;DHT22;6283;51.330;12.374;2023-05-21T08:50:10;23.70;1.00
12438;DHT22;6283;51.330;12.374;2023-05-21T08:52:36;23.80;1.00
12438;DHT22;6283;51.330;12.374;2023-05-21T08:55:06;24.00;1.00
12438;DHT22;6283;51.330;12.374;2023-05-21T08:57:32;24.10;1.00
12438;DHT22;6283;51.330;12.374;2023-05-21T08:59:59;24.20;1.00
12438;DHT22;6283;51.330;12.374;2023-05-21T09:02:26;24.30;1.00
12438;DHT22;6283;51.330;12.374;2023-05-21T09:04:52;24.40;1.00
12438;DHT22;6283;51.330;12.374;2023-05-21T09:07:24;24.40;1.00
12438;DHT22;6283;51.330;12.374;2023-05-21T09:09:54;24.50;1.00
12438;DHT22;6283;51.330;12.374;2023-05-21T09:12:22;24.60;1.00
12438;DHT22;6283;51.330;12.374;2023-05-21T09:14:48;24.60;1.00
12438;DHT22;6283;51.330;12.374;2023-05-21T09:17:14;24.70;1.00
12438;DHT22;6283;51.330;12.374;2023-05-21T09:20:06;24.80;1.00
12438;DHT22;6283;51.330;12.374;2023-05-21T09:22:42;25.00;1.00
12438;DHT22;6283;51.330;12.374;2023-05-21T09:25:13;25.00;1.00
12438;DHT22;6283;51.330;12.374;2023-05-21T09:27:39;25.10;1.00
12438;DHT22;6283;51.330;12.374;2023-05-21T09:30:15;25.20;1.00
12438;DHT22;6283;51.330;12.374;2023-05-21T09:32:45;25.20;1.00
12438;DHT22;6283;51.330;12.374;2023-05-21T09:35:16;25.20;1.00
12438;DHT22;6283;51.330;12.374;2023-05-21T09:37:43;25.30;1.00
12438;DHT22;6283;51.330;12.374;2023-05-21T09:40:16;25.40;1.00
12438;DHT22;6283;51.330;12.374;2023-05-21T09:42:45;25.50;1.00
12438;DHT22;6283;51.330;12.374;2023-05-21T09:45:11;25.70;1.00
12438;DHT22;6283;51.330;12.374;2023-05-21T09:47:41;25.80;1.00
12438;DHT22;6283;51.330;12.374;2023-05-21T09:53:11;26.10;1.00
12438;DHT22;6283;51.330;12.374;2023-05-21T09:55:38;26.20;1.00
12438;DHT22;6283;51.330;12.374;2023-05-21T09:58:05;26.30;1.00
12438;DHT22;6283;51.330;12.374;2023-05-21T10:00:30;26.40;1.00
12438;DHT22;6283;51.330;12.374;2023-05-21T10:02:59;26.40;1.00
12438;DHT22;6283;51.330;12.374;2023-05-21T10:05:29;26.40;1.00
12438;DHT22;6283;51.330;12.374;2023-05-21T10:08:07;26.50;1.00
12438;DHT22;6283;51.330;12.374;2023-05-21T10:10:34;26.60;1.00
12438;DHT22;6283;51.330;12.374;2023-05-21T10:13:07;26.70;1.00
12438;DHT22;6283;51.330;12.374;2023-05-21T10:15:44;26.70;1.00
12438;DHT22;6283;51.330;12.374;2023-05-21T10:18:12;26.80;1.00
12438;DHT22;6283;51.330;12.374;2023-05-21T10:20:38;26.90;1.00
12438;DHT22;6283;51.330;12.374;2023-05-21T10:23:05;27.00;1.00
12438;DHT22;6283;51.330;12.374;2023-05-21T10:25:31;27.10;1.00
12438;DHT22;6283;51.330;12.374;2023-05-21T10:27:57;27.20;1.00
12438;DHT22;6283;51.330;12.374;2023-05-21T10:30:23;27.20;1.00
12438;DHT22;6283;51.330;12.374;2023-05-21T10:32:49;27.30;1.00
12438;DHT22;6283;51.330;12.374;2023-05-21T10:35:15;27.30;1.00
12438;DHT22;6283;51.330;12.374;2023-05-21T10:37:44;27.40;1.00
12438;DHT22;6283;51.330;12.374;2023-05-21T10:40:11;27.40;1.00
12438;DHT22;6283;51.330;12.374;2023-05-21T10:45:50;27.50;1.00
12438;DHT22;6283;51.330;12.374;2023-05-21T10:56:56;27.80;1.00
12438;DHT22;6283;51.330;12.374;2023-05-21T10:59:44;27.80;1.00
12438;DHT22;6283;51.330;12.374;2023-05-21T11:02:15;28.00;1.00
12438;DHT22;6283;51.330;12.374;2023-05-21T11:04:45;28.10;1.00
12438;DHT22;6283;51.330;12.374;2023-05-21T11:07:14;28.20;1.00
12438;DHT22;6283;51.330;12.374;2023-05-21T11:09:40;28.30;1.00
12438;DHT22;6283;51.330;12.374;2023-05-21T11:12:06;28.40;1.00
12438;DHT22;6283;51.330;12.374;2023-05-21T11:17:14;28.60;1.00
12438;DHT22;6283;51.330;12.374;2023-05-21T11:19:44;28.80;1.00
12438;DHT22;6283;51.330;12.374;2023-05-21T11:22:23;29.00;1.00
12438;DHT22;6283;51.330;12.374;2023-05-21T11:24:50;29.10;1.00
12438;DHT22;6283;51.330;12.374;2023-05-21T11:27:45;29.20;1.00
12438;DHT22;6283;51.330;12.374;2023-05-21T11:30:17;29.50;1.00
12438;DHT22;6283;51.330;12.374;2023-05-21T11:35:57;29.80;1.00
12438;DHT22;6283;51.330;12.374;2023-05-21T11:38:28;30.10;1.00
12438;DHT22;6283;51.330;12.374;2023-05-21T11:41:00;30.30;1.00
12438;DHT22;6283;51.330;12.374;2023-05-21T11:43:27;30.30;1.00
12438;DHT22;6283;51.330;12.374;2023-05-21T11:45:53;30.10;1.00
12438;DHT22;6283;51.330;12.374;2023-05-21T11:48:23;30.10;1.00
12438;DHT22;6283;51.330;12.374;2023-05-21T11:50:48;30.30;1.00
12438;DHT22;6283;51.330;12.374;2023-05-21T11:53:14;30.40;1.00
12438;DHT22;6283;51.330;12.374;2023-05-21T11:55:40;30.70;1.00
12438;DHT22;6283;51.330;12.374;2023-05-21T11:58:09;30.90;1.00
12438;DHT22;6283;51.330;12.374;2023-05-21T12:00:38;31.20;1.00
12438;DHT22;6283;51.330;12.374;2023-05-21T12:03:06;31.60;1.00
12438;DHT22;6283;51.330;12.374;2023-05-21T12:05:49;31.80;1.00
12438;DHT22;6283;51.330;12.374;2023-05-21T12:08:22;32.00;1.00
12438;DHT22;6283;51.330;12.374;2023-05-21T12:10:58;32.00;1.00
12438;DHT22;6283;51.330;12.374;2023-05-21T12:13:24;31.80;1.00
12438;DHT22;6283;51.330;12.374;2023-05-21T12:15:52;31.70;1.00
12438;DHT22;6283;51.330;12.374;2023-05-21T12:18:18;31.70;1.00
12438;DHT22;6283;51.330;12.374;2023-05-21T12:20:43;31.70;1.00
12438;DHT22;6283;51.330;12.374;2023-05-21T12:23:24;31.70;1.00
12438;DHT22;6283;51.330;12.374;2023-05-21T12:25:50;31.80;1.00
12438;DHT22;6283;51.330;12.374;2023-05-21T12:28:16;31.90;1.00
12438;DHT22;6283;51.330;12.374;2023-05-21T12:30:42;32.00;1.00
12438;DHT22;6283;51.330;12.374;2023-05-21T12:33:07;32.00;1.00
12438;DHT22;6283;51.330;12.374;2023-05-21T12:35:33;32.30;1.00
12438;DHT22;6283;51.330;12.374;2023-05-21T12:38:02;32.30;1.00
12438;DHT22;6283;51.330;12.374;2023-05-21T12:40:35;32.40;1.00
12438;DHT22;6283;51.330;12.374;2023-05-21T12:43:02;32.60;1.00
12438;DHT22;6283;51.330;12.374;2023-05-21T12:45:29;32.80;1.00
12438;DHT22;6283;51.330;12.374;2023-05-21T12:47:55;33.10;1.00
12438;DHT22;6283;51.330;12.374;2023-05-21T12:50:21;33.10;1.00
12438;DHT22;6283;51.330;12.374;2023-05-21T12:52:46;32.80;1.00
12438;DHT22;6283;51.330;12.374;2023-05-21T12:55:13;32.70;1.00
12438;DHT22;6283;51.330;12.374;2023-05-21T12:57:39;32.60;1.00
12438;DHT22;6283;51.330;12.374;2023-05-21T13:00:06;32.40;1.00
12438;DHT22;6283;51.330;12.374;2023-05-21T13:02:37;32.40;1.00
12438;DHT22;6283;51.330;12.374;2023-05-21T13:05:05;32.30;1.00
12438;DHT22;6283;51.330;12.374;2023-05-21T13:07:33;32.40;1.00
12438;DHT22;6283;51.330;12.374;2023-05-21T13:10:00;32.60;1.00
12438;DHT22;6283;51.330;12.374;2023-05-21T13:12:27;32.80;1.00
12438;DHT22;6283;51.330;12.374;2023-05-21T13:14:55;32.70;1.00
12438;DHT22;6283;51.330;12.374;2023-05-21T13:17:21;32.60;1.00
12438;DHT22;6283;51.330;12.374;2023-05-21T13:22:49;32.50;1.00
12438;DHT22;6283;51.330;12.374;2023-05-21T13:25:21;32.60;1.00
12438;DHT22;6283;51.330;12.374;2023-05-21T13:27:49;32.70;1.00
12438;DHT22;6283;51.330;12.374;2023-05-21T13:30:15;32.70;1.00
12438;DHT22;6283;51.330;12.374;2023-05-21T13:32:41;32.70;1.00
12438;DHT22;6283;51.330;12.374;2023-05-21T13:35:07;32.70;1.00
12438;DHT22;6283;51.330;12.374;2023-05-21T13:37:35;32.70;1.00
12438;DHT22;6283;51.330;12.374;2023-05-21T13:40:05;32.80;1.00
12438;DHT22;6283;51.330;12.374;2023-05-21T13:42:32;32.80;1.00
12438;DHT22;6283;51.330;12.374;2023-05-21T13:44:58;32.80;1.00
12438;DHT22;6283;51.330;12.374;2023-05-21T13:47:23;32.80;1.00
12438;DHT22;6283;51.330;12.374;2023-05-21T13:49:49;32.80;1.00
12438;DHT22;6283;51.330;12.374;2023-05-21T13:52:15;32.80;1.00
12438;DHT22;6283;51.330;12.374;2023-05-21T13:54:42;32.80;1.00
12438;DHT22;6283;51.330;12.374;2023-05-21T13:57:08;32.80;1.00
12438;DHT22;6283;51.330;12.374;2023-05-21T13:59:34;32.80;1.00
12438;DHT22;6283;51.330;12.374;2023-05-21T14:02:00;32.80;1.00
12438;DHT22;6283;51.330;12.374;2023-05-21T14:04:25;32.80;1.00
12438;DHT22;6283;51.330;12.374;2023-05-21T14:06:51;32.80;1.00
12438;DHT22;6283;51.330;12.374;2023-05-21T14:09:17;32.80;1.00
12438;DHT22;6283;51.330;12.374;2023-05-21T14:11:42;32.70;1.00
12438;DHT22;6283;51.330;12.374;2023-05-21T14:14:08;32.70;1.00
12438;DHT22;6283;51.330;12.374;2023-05-21T14:16:34;32.50;1.00
12438;DHT22;6283;51.330;12.374;2023-05-21T14:18:59;32.40;1.00
12438;DHT22;6283;51.330;12.374;2023-05-21T14:21:25;32.30;1.00
12438;DHT22;6283;51.330;12.374;2023-05-21T14:23:51;32.20;1.00
12438;DHT22;6283;51.330;12.374;2023-05-21T14:26:17;32.20;1.00
12438;DHT22;6283;51.330;12.374;2023-05-21T14:28:43;32.20;1.00
12438;DHT22;6283;51.330;12.374;2023-05-21T14:31:10;32.10;1.00
12438;DHT22;6283;51.330;12.374;2023-05-21T14:33:36;32.00;1.00
12438;DHT22;6283;51.330;12.374;2023-05-21T14:36:02;31.90;1.00
12438;DHT22;6283;51.330;12.374;2023-05-21T14:38:28;31.80;1.00
12438;DHT22;6283;51.330;12.374;2023-05-21T14:40:54;31.80;1.00
12438;DHT22;6283;51.330;12.374;2023-05-21T14:43:20;31.80;1.00
12438;DHT22;6283;51.330;12.374;2023-05-21T14:45:46;31.70;1.00
12438;DHT22;6283;51.330;12.374;2023-05-21T14:48:11;31.60;1.00
12438;DHT22;6283;51.330;12.374;2023-05-21T14:50:38;31.60;1.00
12438;DHT22;6283;51.330;12.374;2023-05-21T14:53:07;31.60;1.00
12438;DHT22;6283;51.330;12.374;2023-05-21T14:55:34;31.40;1.00
12438;DHT22;6283;51.330;12.374;2023-05-21T14:58:01;31.40;1.00
12438;DHT22;6283;51.330;12.374;2023-05-21T15:00:29;31.40;1.00
12438;DHT22;6283;51.330;12.374;2023-05-21T15:02:54;31.40;1.00
12438;DHT22;6283;51.330;12.374;2023-05-21T15:05:20;31.40;1.00
12438;DHT22;6283;51.330;12.374;2023-05-21T15:07:46;31.40;1.00
12438;DHT22;6283;51.330;12.374;2023-05-21T15:10:12;31.50;1.00
12438;DHT22;6283;51.330;12.374;2023-05-21T15:12:38;31.60;1.00
12438;DHT22;6283;51.330;12.374;2023-05-21T15:15:05;31.70;1.00
12438;DHT22;6283;51.330;12.374;2023-05-21T15:17:31;31.80;1.00
12438;DHT22;6283;51.330;12.374;2023-05-21T15:19:58;31.90;1.00
12438;DHT22;6283;51.330;12.374;2023-05-21T15:22:29;32.00;1.00
12438;DHT22;6283;51.330;12.374;2023-05-21T15:24:55;32.00;1.00
12438;DHT22;6283;51.330;12.374;2023-05-21T15:27:20;32.10;1.00
12438;DHT22;6283;51.330;12.374;2023-05-21T15:29:46;32.20;1.00
12438;DHT22;6283;51.330;12.374;2023-05-21T15:32:12;32.30;1.00
12438;DHT22;6283;51.330;12.374;2023-05-21T15:34:38;32.50;1.00
12438;DHT22;6283;51.330;12.374;2023-05-21T15:37:03;32.80;1.00
12438;DHT22;6283;51.330;12.374;2023-05-21T15:39:29;32.90;1.00
12438;DHT22;6283;51.330;12.374;2023-05-21T15:41:55;33.10;1.00
12438;DHT22;6283;51.330;12.374;2023-05-21T15:44:21;33.20;1.00
12438;DHT22;6283;51.330;12.374;2023-05-21T15:46:46;33.40;1.00
12438;DHT22;6283;51.330;12.374;2023-05-21T15:49:15;33.50;1.00
12438;DHT22;6283;51.330;12.374;2023-05-21T15:51:41;33.50;1.00
12438;DHT22;6283;51.330;12.374;2023-05-21T15:54:06;33.40;1.00
12438;DHT22;6283;51.330;12.374;2023-05-21T15:56:32;33.30;1.00
12438;DHT22;6283;51.330;12.374;2023-05-21T15:58:57;33.00;1.00
12438;DHT22;6283;51.330;12.374;2023-05-21T16:01:26;32.70;1.00
12438;DHT22;6283;51.330;12.374;2023-05-21T16:03:53;32.30;1.00
12438;DHT22;6283;51.330;12.374;2023-05-21T16:06:18;32.00;1.00
12438;DHT22;6283;51.330;12.374;2023-05-21T16:08:44;31.70;1.00